createdAt,value
2022-09-12T00:01:22.453Z,100.00
2022-09-12T00:03:53.633Z,100.00
2022-09-12T00:06:25.891Z,100.00
2022-09-12T00:08:56.800Z,100.00
2022-09-12T00:11:26.156Z,100.00
2022-09-12T00:13:57.787Z,100.00
2022-09-12T00:16:28.295Z,100.00
2022-09-12T00:18:56.659Z,100.00
2022-09-12T00:21:26.536Z,100.00
2022-09-12T00:23:55.417Z,100.00
2022-09-12T00:26:23.710Z,100.00
2022-09-12T00:28:52.361Z,100.00
2022-09-12T00:31:24.163Z,100.00
2022-09-12T00:33:53.150Z,100.00
2022-09-12T00:36:23.360Z,100.00
2022-09-12T00:38:53.627Z,100.00
2022-09-12T00:41:24.252Z,100.00
2022-09-12T00:43:54.945Z,100.00
2022-09-12T00:46:40.553Z,100.00
2022-09-12T00:49:15.363Z,100.00
2022-09-12T00:51:46.898Z,100.00
2022-09-12T00:54:22.501Z,100.00
2022-09-12T00:56:54.123Z,100.00
2022-09-12T00:59:28.307Z,100.00
2022-09-12T01:01:58.119Z,100.00
2022-09-12T01:04:28.449Z,100.00
2022-09-12T01:06:58.910Z,100.00
2022-09-12T01:09:28.805Z,100.00
2022-09-12T01:11:58.358Z,100.00
2022-09-12T01:14:26.644Z,100.00
2022-09-12T01:16:55.051Z,100.00
2022-09-12T01:19:51.483Z,100.00
2022-09-12T01:22:44.925Z,100.00
2022-09-12T01:25:26.061Z,100.00
2022-09-12T01:28:12.864Z,100.00
2022-09-12T01:30:47.250Z,100.00
2022-09-12T01:33:35.488Z,100.00
2022-09-12T01:36:19.919Z,100.00
2022-09-12T01:38:51.781Z,100.00
2022-09-12T01:41:28.167Z,100.00
2022-09-12T01:44:03.745Z,100.00
2022-09-12T01:46:42.000Z,100.00
2022-09-12T01:49:17.204Z,100.00
2022-09-12T01:51:55.614Z,100.00
2022-09-12T01:54:31.951Z,100.00
2022-09-12T01:57:05.410Z,100.00
2022-09-12T01:59:37.336Z,100.00
2022-09-12T02:02:13.738Z,100.00
2022-09-12T02:04:51.651Z,100.00
2022-09-12T02:07:22.873Z,100.00
2022-09-12T02:09:55.770Z,100.00
2022-09-12T02:12:30.987Z,100.00
2022-09-12T02:15:05.023Z,100.00
2022-09-12T02:17:39.414Z,100.00
2022-09-12T02:20:31.117Z,100.00
2022-09-12T02:23:08.397Z,100.00
2022-09-12T02:25:43.209Z,100.00
2022-09-12T02:28:15.645Z,100.00
2022-09-12T02:30:52.006Z,100.00
2022-09-12T02:33:28.690Z,100.00
2022-09-12T02:36:04.697Z,100.00
2022-09-12T02:38:39.082Z,100.00
2022-09-12T02:41:07.436Z,100.00
2022-09-12T02:43:37.914Z,100.00
2022-09-12T02:46:09.653Z,100.00
2022-09-12T02:48:44.101Z,100.00
2022-09-12T02:51:13.230Z,100.00
2022-09-12T02:53:43.331Z,100.00
2022-09-12T02:56:18.497Z,100.00
2022-09-12T02:58:47.574Z,100.00
2022-09-12T03:01:28.071Z,100.00
2022-09-12T03:04:19.464Z,100.00
2022-09-12T03:06:58.628Z,100.00
2022-09-12T03:09:36.744Z,100.00
2022-09-12T03:12:13.040Z,100.00
2022-09-12T03:15:06.264Z,100.00
2022-09-12T03:17:47.241Z,100.00
2022-09-12T03:20:23.864Z,100.00
2022-09-12T03:22:57.763Z,100.00
2022-09-12T03:25:31.501Z,100.00
2022-09-12T03:28:06.297Z,100.00
2022-09-12T03:30:39.698Z,100.00
2022-09-12T03:33:08.002Z,100.00
2022-09-12T03:35:37.717Z,100.00
2022-09-12T03:38:08.137Z,100.00
2022-09-12T03:40:36.535Z,100.00
2022-09-12T03:43:05.449Z,100.00
2022-09-12T03:45:33.830Z,100.00
2022-09-12T03:48:02.443Z,100.00
2022-09-12T03:50:30.837Z,100.00
2022-09-12T03:53:01.944Z,100.00
2022-09-12T03:55:31.243Z,100.00
2022-09-12T03:57:59.556Z,100.00
2022-09-12T04:00:27.762Z,100.00
2022-09-12T04:02:57.389Z,100.00
2022-09-12T04:05:26.683Z,100.00
2022-09-12T04:07:54.983Z,100.00
2022-09-12T04:10:24.644Z,100.00
2022-09-12T04:12:53.026Z,100.00
2022-09-12T04:15:21.399Z,100.00
2022-09-12T04:17:49.604Z,100.00
2022-09-12T04:20:18.280Z,100.00
2022-09-12T04:22:46.576Z,100.00
2022-09-12T04:25:15.483Z,100.00
2022-09-12T04:27:45.139Z,100.00
2022-09-12T04:30:14.395Z,100.00
2022-09-12T04:32:42.672Z,100.00
2022-09-12T04:35:12.429Z,100.00
2022-09-12T04:37:40.698Z,100.00
2022-09-12T04:40:10.189Z,100.00
2022-09-12T04:42:38.548Z,100.00
2022-09-12T04:45:09.543Z,100.00
2022-09-12T04:47:38.137Z,100.00
2022-09-12T04:50:07.436Z,100.00
2022-09-12T04:52:36.056Z,100.00
2022-09-12T04:55:04.579Z,100.00
2022-09-12T04:57:32.872Z,100.00
2022-09-12T05:00:06.490Z,100.00
2022-09-12T05:02:36.948Z,100.00
2022-09-12T05:05:05.688Z,100.00
2022-09-12T05:07:34.035Z,100.00
2022-09-12T05:10:04.089Z,100.00
2022-09-12T05:12:32.302Z,100.00
2022-09-12T05:15:00.624Z,100.00
2022-09-12T05:17:30.518Z,100.00
2022-09-12T05:20:00.851Z,100.00
2022-09-12T05:22:29.154Z,100.00
2022-09-12T05:24:57.397Z,100.00
2022-09-12T05:27:25.668Z,100.00
2022-09-12T05:29:53.948Z,100.00
2022-09-12T05:32:22.261Z,100.00
2022-09-12T05:34:51.033Z,100.00
2022-09-12T05:37:20.771Z,100.00
2022-09-12T05:39:49.046Z,100.00
2022-09-12T05:42:17.336Z,100.00
2022-09-12T05:44:45.620Z,100.00
2022-09-12T05:47:13.959Z,100.00
2022-09-12T05:49:42.213Z,100.00
2022-09-12T05:52:10.483Z,100.00
2022-09-12T05:54:41.324Z,100.00
2022-09-12T05:57:09.652Z,94.63
2022-09-12T05:59:38.217Z,89.59
2022-09-12T06:02:06.511Z,92.67
2022-09-12T06:04:35.255Z,77.19
2022-09-12T06:07:03.560Z,73.11
2022-09-12T06:09:32.797Z,73.03
2022-09-12T06:12:02.576Z,68.29
2022-09-12T06:14:30.854Z,63.84
2022-09-12T06:16:59.181Z,63.20
2022-09-12T06:19:28.230Z,61.02
2022-09-12T06:21:57.158Z,57.78
2022-09-12T06:24:25.493Z,54.01
2022-09-12T06:26:53.899Z,59.88
2022-09-12T06:29:23.757Z,57.28
2022-09-12T06:31:52.012Z,53.01
2022-09-12T06:34:20.893Z,54.91
2022-09-12T06:36:50.837Z,50.87
2022-09-12T06:39:20.362Z,50.95
2022-09-12T06:41:49.706Z,52.09
2022-09-12T06:44:20.204Z,49.66
2022-09-12T06:46:50.350Z,50.38
2022-09-12T06:49:18.812Z,47.36
2022-09-12T06:51:47.109Z,49.06
2022-09-12T06:54:17.025Z,50.40
2022-09-12T06:56:46.186Z,48.19
2022-09-12T06:59:14.629Z,45.74
2022-09-12T07:01:43.172Z,46.60
2022-09-12T07:04:12.920Z,45.79
2022-09-12T07:06:44.676Z,44.88
2022-09-12T07:09:16.508Z,41.64
2022-09-12T07:11:45.943Z,44.58
2022-09-12T07:14:15.467Z,46.60
2022-09-12T07:16:44.252Z,42.51
2022-09-12T07:19:14.172Z,48.17
2022-09-12T07:21:42.587Z,52.38
2022-09-12T07:24:11.811Z,43.66
2022-09-12T07:26:42.433Z,42.71
2022-09-12T07:32:05.780Z,41.78
2022-09-12T07:34:36.487Z,41.26
2022-09-12T07:37:04.953Z,39.13
2022-09-12T07:39:33.691Z,40.06
2022-09-12T07:42:01.977Z,42.41
2022-09-12T07:44:30.525Z,40.14
2022-09-12T07:46:58.828Z,38.87
2022-09-12T07:49:27.104Z,40.17
2022-09-12T07:51:56.767Z,40.44
2022-09-12T07:54:25.404Z,38.04
2022-09-12T07:56:53.607Z,37.83
2022-09-12T07:59:48.355Z,37.34
2022-09-12T08:02:17.142Z,39.27
2022-09-12T08:04:46.579Z,37.08
2022-09-12T08:07:18.480Z,38.31
2022-09-12T08:09:49.366Z,35.48
2022-09-12T08:12:17.882Z,35.91
2022-09-12T08:14:46.169Z,35.37
2022-09-12T08:17:14.533Z,33.81
2022-09-12T08:19:42.910Z,34.71
2022-09-12T08:22:11.338Z,33.43
2022-09-12T08:24:41.170Z,32.28
2022-09-12T08:27:09.824Z,31.50
2022-09-12T08:29:38.112Z,30.36
2022-09-12T08:32:06.659Z,32.01
2022-09-12T08:34:35.036Z,31.75
2022-09-12T08:37:04.210Z,32.20
2022-09-12T08:39:33.377Z,31.06
2022-09-12T08:42:05.110Z,32.60
2022-09-12T08:45:00.861Z,31.49
2022-09-12T08:47:32.707Z,31.58
2022-09-12T08:50:17.849Z,30.02
2022-09-12T08:52:54.834Z,28.41
2022-09-12T08:55:35.659Z,29.22
2022-09-12T08:58:14.811Z,29.46
2022-09-12T09:00:52.436Z,28.98
2022-09-12T09:03:46.423Z,30.33
2022-09-12T09:06:28.037Z,29.55
2022-09-12T09:09:06.110Z,29.70
2022-09-12T09:11:48.316Z,29.95
2022-09-12T09:14:51.359Z,29.58
2022-09-12T09:17:25.940Z,29.39
2022-09-12T09:20:03.314Z,29.57
2022-09-12T09:22:42.637Z,27.75
2022-09-12T09:25:22.611Z,27.69
2022-09-12T09:27:59.309Z,27.94
2022-09-12T09:30:29.135Z,26.50
2022-09-12T09:33:01.195Z,25.93
2022-09-12T09:35:39.796Z,26.71
2022-09-12T09:38:20.463Z,25.58
2022-09-12T09:41:01.658Z,24.19
2022-09-12T09:43:30.154Z,23.91
2022-09-12T09:46:00.603Z,22.70
2022-09-12T09:48:31.481Z,23.61
2022-09-12T09:51:02.040Z,23.44
2022-09-12T09:53:38.907Z,23.61
2022-09-12T09:56:13.225Z,23.38
2022-09-12T09:58:42.210Z,23.36
2022-09-12T10:01:17.666Z,23.90
2022-09-12T10:03:53.850Z,22.34
2022-09-12T10:06:31.079Z,22.29
2022-09-12T10:09:09.837Z,23.78
2022-09-12T10:11:43.670Z,22.07
2022-09-12T10:14:31.232Z,21.80
2022-09-12T10:17:03.473Z,20.53
2022-09-12T10:19:40.402Z,22.55
2022-09-12T10:22:17.192Z,21.03
2022-09-12T10:24:50.436Z,21.19
2022-09-12T10:27:23.435Z,22.96
2022-09-12T10:29:56.076Z,22.62
2022-09-12T10:32:31.072Z,22.53
2022-09-12T10:35:03.159Z,22.15
2022-09-12T10:37:34.642Z,21.16
2022-09-12T10:40:05.442Z,21.47
2022-09-12T10:42:48.925Z,21.81
2022-09-12T10:45:26.516Z,21.43
2022-09-12T10:48:02.061Z,19.22
2022-09-12T10:50:36.928Z,20.74
2022-09-12T10:53:19.251Z,19.67
2022-09-12T10:56:01.511Z,20.43
2022-09-12T10:58:45.085Z,18.08
2022-09-12T11:01:27.639Z,19.52
2022-09-12T11:04:16.193Z,19.69
2022-09-12T11:06:53.980Z,20.19
2022-09-12T11:09:31.360Z,21.63
2022-09-12T11:12:09.902Z,21.19
2022-09-12T11:14:52.711Z,21.11
2022-09-12T11:17:32.169Z,22.55
2022-09-12T11:20:44.764Z,22.45
2022-09-12T11:23:48.511Z,21.83
2022-09-12T11:26:32.071Z,21.43
2022-09-12T11:29:12.694Z,22.20
2022-09-12T11:32:06.923Z,20.46
2022-09-12T11:34:44.964Z,22.66
2022-09-12T11:37:32.431Z,23.68
2022-09-12T11:40:08.829Z,23.86
2022-09-12T11:42:41.095Z,22.20
2022-09-12T11:45:16.923Z,21.74
2022-09-12T11:47:48.487Z,21.32
2022-09-12T11:50:23.516Z,19.74
2022-09-12T11:52:56.713Z,20.39
2022-09-12T11:55:30.543Z,23.24
2022-09-12T11:58:00.886Z,21.89
2022-09-12T12:00:34.744Z,22.28
2022-09-12T12:03:06.461Z,23.02
2022-09-12T12:05:44.314Z,21.03
2022-09-12T12:08:14.770Z,20.25
2022-09-12T12:10:45.463Z,21.63
2022-09-12T12:13:22.712Z,21.58
2022-09-12T12:15:54.862Z,21.55
2022-09-12T12:18:26.513Z,21.57
2022-09-12T12:20:56.504Z,23.28
2022-09-12T12:23:29.267Z,22.99
2022-09-12T12:25:58.961Z,23.23
2022-09-12T12:28:59.416Z,23.73
2022-09-12T12:31:27.824Z,23.43
2022-09-12T12:34:04.733Z,23.78
2022-09-12T12:36:40.502Z,23.51
2022-09-12T12:39:51.262Z,23.64
2022-09-12T12:43:05.381Z,22.05
2022-09-12T12:46:02.958Z,23.24
2022-09-12T12:48:48.391Z,26.83
2022-09-12T12:51:29.881Z,28.41
2022-09-12T12:53:59.091Z,28.09
2022-09-12T12:56:34.875Z,26.67
2022-09-12T12:59:06.276Z,26.04
2022-09-12T13:01:41.195Z,26.53
2022-09-12T13:04:16.981Z,27.44
2022-09-12T13:06:47.992Z,26.86
2022-09-12T13:09:27.008Z,27.13
2022-09-12T13:12:04.200Z,27.20
2022-09-12T13:14:54.812Z,27.60
2022-09-12T13:17:29.399Z,27.94
2022-09-12T13:20:26.578Z,28.33
2022-09-12T13:22:55.512Z,28.22
2022-09-12T13:25:31.577Z,28.48
2022-09-12T13:28:06.953Z,28.58
2022-09-12T13:30:37.518Z,28.38
2022-09-12T13:33:12.968Z,29.26
2022-09-12T13:36:00.886Z,28.23
2022-09-12T13:38:38.823Z,29.40
2022-09-12T13:41:25.867Z,30.26
2022-09-12T13:43:54.897Z,29.11
2022-09-12T13:46:30.392Z,29.07
2022-09-12T13:49:01.949Z,29.53
2022-09-12T13:51:33.374Z,30.63
2022-09-12T13:54:05.179Z,30.56
2022-09-12T13:56:33.470Z,31.91
2022-09-12T13:59:03.648Z,32.34
2022-09-12T14:01:40.537Z,30.62
2022-09-12T14:04:31.148Z,32.24
2022-09-12T14:07:01.787Z,32.88
2022-09-12T14:09:33.758Z,31.49
2022-09-12T14:12:03.379Z,32.55
2022-09-12T14:14:35.768Z,33.49
2022-09-12T14:17:19.842Z,33.60
2022-09-12T14:19:53.881Z,34.48
2022-09-12T14:22:22.825Z,34.36
2022-09-12T14:24:51.886Z,35.27
2022-09-12T14:27:25.918Z,35.64
2022-09-12T14:30:01.967Z,35.11
2022-09-12T14:32:30.608Z,35.30
2022-09-12T14:35:19.853Z,36.52
2022-09-12T14:37:51.996Z,36.64
2022-09-12T14:40:22.793Z,41.40
2022-09-12T14:42:56.963Z,37.60
2022-09-12T14:45:32.745Z,37.53
2022-09-12T14:48:01.270Z,38.45
2022-09-12T14:50:36.800Z,37.67
2022-09-12T14:53:07.264Z,36.40
2022-09-12T14:55:43.640Z,34.24
2022-09-12T14:58:26.386Z,34.88
2022-09-12T15:00:56.709Z,35.65
2022-09-12T15:03:34.269Z,34.87
2022-09-12T15:06:08.041Z,34.81
2022-09-12T15:08:36.730Z,34.95
2022-09-12T15:11:08.214Z,33.60
2022-09-12T15:13:42.212Z,33.55
2022-09-12T15:16:12.370Z,33.95
2022-09-12T15:18:40.588Z,33.87
2022-09-12T15:21:15.200Z,34.36
2022-09-12T15:23:46.994Z,35.77
2022-09-12T15:26:17.284Z,34.76
2022-09-12T15:28:45.718Z,35.32
2022-09-12T15:31:22.986Z,35.53
2022-09-12T15:33:51.449Z,34.77
2022-09-12T15:36:23.760Z,34.14
2022-09-12T15:38:52.142Z,35.04
2022-09-12T15:41:22.385Z,34.77
2022-09-12T15:43:51.579Z,34.50
2022-09-12T15:46:20.415Z,35.42
2022-09-12T15:48:48.761Z,35.31
2022-09-12T15:51:19.195Z,35.61
2022-09-12T15:53:49.800Z,36.28
2022-09-12T15:56:19.389Z,35.83
2022-09-12T15:59:01.196Z,36.33
2022-09-12T16:01:30.402Z,36.41
2022-09-12T16:03:58.997Z,36.40
2022-09-12T16:06:27.985Z,36.69
2022-09-12T16:08:57.708Z,36.49
2022-09-12T16:11:28.707Z,36.93
2022-09-12T16:13:58.442Z,36.67
2022-09-12T16:16:26.839Z,37.78
2022-09-12T16:18:55.196Z,37.37
2022-09-12T16:21:24.490Z,38.25
2022-09-12T16:23:53.064Z,38.58
2022-09-12T16:26:22.747Z,40.04
2022-09-12T16:28:56.251Z,39.39
2022-09-12T16:31:24.673Z,39.06
2022-09-12T16:33:53.109Z,40.14
2022-09-12T16:36:22.608Z,40.16
2022-09-12T16:38:52.557Z,40.21
2022-09-12T16:41:24.760Z,41.15
2022-09-12T16:43:53.674Z,42.44
2022-09-12T16:46:24.433Z,43.90
2022-09-12T16:48:54.584Z,45.62
2022-09-12T16:51:26.069Z,44.94
2022-09-12T16:53:55.619Z,48.05
2022-09-12T16:56:25.928Z,48.15
2022-09-12T16:58:54.434Z,49.49
2022-09-12T17:01:24.356Z,46.29
2022-09-12T17:03:54.682Z,47.41
2022-09-12T17:06:23.179Z,46.66
2022-09-12T17:08:53.834Z,45.64
2022-09-12T17:11:26.585Z,44.88
2022-09-12T17:14:05.845Z,47.98
2022-09-12T17:16:35.983Z,47.26
2022-09-12T17:19:04.572Z,48.22
2022-09-12T17:21:32.978Z,51.13
2022-09-12T17:24:01.743Z,51.43
2022-09-12T17:26:31.721Z,51.50
2022-09-12T17:29:00.137Z,50.52
2022-09-12T17:31:29.179Z,51.97
2022-09-12T17:33:59.183Z,50.86
2022-09-12T17:36:28.141Z,49.08
2022-09-12T17:38:56.661Z,55.87
2022-09-12T17:41:27.964Z,54.96
2022-09-12T17:43:59.403Z,51.67
2022-09-12T17:46:35.071Z,59.67
2022-09-12T17:49:06.181Z,60.07
2022-09-12T17:51:34.601Z,59.14
2022-09-12T17:54:05.655Z,61.68
2022-09-12T17:56:35.509Z,62.74
2022-09-12T17:59:07.044Z,57.71
2022-09-12T18:01:52.881Z,58.86
2022-09-12T18:04:21.524Z,63.72
2022-09-12T18:06:50.266Z,63.72
2022-09-12T18:09:20.891Z,59.54
2022-09-12T18:11:50.113Z,64.60
2022-09-12T18:14:20.564Z,66.22
2022-09-12T18:16:49.557Z,69.25
2022-09-12T18:19:18.264Z,71.30
2022-09-12T18:21:46.912Z,73.90
2022-09-12T18:24:15.489Z,71.52
2022-09-12T18:26:44.527Z,66.64
2022-09-12T18:29:16.854Z,78.51
2022-09-12T18:31:47.359Z,65.54
2022-09-12T18:34:16.287Z,60.81
2022-09-12T18:36:46.780Z,63.47
2022-09-12T18:39:15.482Z,66.28
2022-09-12T18:41:44.423Z,69.32
2022-09-12T18:44:13.342Z,71.64
2022-09-12T18:46:41.782Z,71.17
2022-09-12T18:49:11.649Z,73.59
2022-09-12T18:51:42.012Z,77.47
2022-09-12T18:54:14.531Z,72.77
2022-09-12T18:56:44.128Z,75.91
2022-09-12T18:59:14.932Z,75.51
2022-09-12T19:01:44.074Z,74.90
2022-09-12T19:04:16.174Z,74.10
2022-09-12T19:06:46.727Z,74.38
2022-09-12T19:09:16.672Z,75.29
2022-09-12T19:11:50.156Z,76.35
2022-09-12T19:14:19.735Z,77.29
2022-09-12T19:16:48.194Z,77.10
2022-09-12T19:19:18.299Z,76.91
2022-09-12T19:21:47.232Z,77.03
2022-09-12T19:24:16.715Z,76.52
2022-09-12T19:26:45.344Z,80.96
2022-09-12T19:29:14.857Z,78.80
2022-09-12T19:31:43.506Z,78.27
2022-09-12T19:34:13.349Z,77.17
2022-09-12T19:36:46.209Z,78.88
2022-09-12T19:39:16.561Z,79.45
2022-09-12T19:41:45.800Z,81.51
2022-09-12T19:44:14.468Z,83.85
2022-09-12T19:46:42.835Z,74.52
2022-09-12T19:49:13.131Z,72.85
2022-09-12T19:51:43.979Z,73.95
2022-09-12T19:54:12.412Z,74.02
2022-09-12T19:56:40.629Z,73.22
2022-09-12T19:59:09.992Z,74.55
2022-09-12T20:01:38.642Z,80.84
2022-09-12T20:04:07.197Z,73.81
2022-09-12T20:06:35.652Z,71.59
2022-09-12T20:09:05.828Z,71.31
2022-09-12T20:11:34.556Z,73.94
2022-09-12T20:14:02.978Z,71.91
2022-09-12T20:16:33.577Z,72.51
2022-09-12T20:19:03.809Z,71.45
2022-09-12T20:21:35.975Z,72.74
2022-09-12T20:24:07.516Z,71.19
2022-09-12T20:26:35.965Z,72.15
2022-09-12T20:29:05.391Z,69.38
2022-09-12T20:31:34.054Z,71.69
2022-09-12T20:34:02.379Z,74.30
2022-09-12T20:36:30.705Z,71.99
2022-09-12T20:39:01.424Z,75.44
2022-09-12T20:41:32.546Z,73.14
2022-09-12T20:44:01.027Z,73.71
2022-09-12T20:46:30.105Z,75.06
2022-09-12T20:48:59.053Z,74.69
2022-09-12T20:51:29.766Z,75.61
2022-09-12T20:53:59.727Z,73.85
2022-09-12T20:56:31.644Z,74.95
2022-09-12T20:59:00.538Z,77.32
2022-09-12T21:01:30.361Z,74.55
2022-09-12T21:03:58.868Z,76.00
2022-09-12T21:06:27.268Z,83.18
2022-09-12T21:08:58.808Z,86.00
2022-09-12T21:11:27.277Z,77.77
2022-09-12T21:13:57.304Z,81.38
2022-09-12T21:16:25.883Z,82.36
2022-09-12T21:18:55.853Z,79.49
2022-09-12T21:21:24.580Z,79.85
2022-09-12T21:23:55.325Z,82.42
2022-09-12T21:26:23.635Z,84.56
2022-09-12T21:28:51.955Z,82.06
2022-09-12T21:31:21.677Z,84.14
2022-09-12T21:33:50.044Z,83.12
2022-09-12T21:36:18.943Z,82.55
2022-09-12T21:38:47.152Z,82.90
2022-09-12T21:41:16.955Z,85.49
2022-09-12T21:43:45.486Z,77.16
2022-09-12T21:46:14.012Z,74.54
2022-09-12T21:48:44.321Z,77.24
2022-09-12T21:51:12.590Z,77.67
2022-09-12T21:53:40.822Z,80.22
2022-09-12T21:56:10.300Z,75.81
2022-09-12T21:58:39.408Z,73.60
2022-09-12T22:01:09.733Z,80.05
2022-09-12T22:03:38.038Z,87.31
2022-09-12T22:06:08.258Z,89.92
2022-09-12T22:08:38.856Z,92.41
2022-09-12T22:11:09.801Z,86.55
2022-09-12T22:13:39.371Z,91.26
2022-09-12T22:16:08.253Z,92.93
2022-09-12T22:18:38.191Z,92.96
2022-09-12T22:21:09.928Z,92.25
2022-09-12T22:23:55.671Z,93.39
2022-09-12T22:26:24.448Z,90.13
2022-09-12T22:28:53.336Z,90.68
2022-09-12T22:31:21.877Z,86.89
2022-09-12T22:33:50.906Z,89.36
2022-09-12T22:36:20.575Z,90.64
2022-09-12T22:38:49.065Z,91.15
2022-09-12T22:41:17.404Z,90.65
2022-09-12T22:43:45.718Z,92.13
2022-09-12T22:46:14.300Z,89.94
2022-09-12T22:48:42.914Z,90.44
2022-09-12T22:51:11.176Z,93.98
2022-09-12T22:53:40.923Z,90.67
2022-09-12T22:56:10.352Z,91.98
2022-09-12T22:58:38.900Z,96.74
2022-09-12T23:01:08.154Z,99.67
2022-09-12T23:03:37.187Z,91.04
2022-09-12T23:06:06.161Z,87.66
2022-09-12T23:08:36.403Z,88.95
2022-09-12T23:11:09.428Z,100.00
2022-09-12T23:13:39.132Z,100.00
2022-09-12T23:16:09.216Z,99.51
2022-09-12T23:18:38.202Z,93.83
2022-09-12T23:21:08.348Z,94.42
2022-09-12T23:23:37.095Z,97.08
2022-09-12T23:26:09.092Z,100.00
2022-09-12T23:28:38.768Z,88.19
2022-09-12T23:31:09.902Z,88.32
2022-09-12T23:33:38.352Z,92.13
2022-09-12T23:36:12.839Z,89.25
2022-09-12T23:38:42.013Z,91.67
2022-09-12T23:41:12.587Z,87.91
2022-09-12T23:43:40.971Z,86.46
2022-09-12T23:46:09.365Z,86.01
2022-09-12T23:48:37.765Z,90.17
2022-09-12T23:51:06.532Z,94.16
2022-09-12T23:53:35.799Z,85.77
2022-09-12T23:56:05.392Z,92.45
2022-09-12T23:58:35.159Z,86.54
